sensor_id;sensor_type;location;lat;lon;timestamp;P1;durP1;ratioP1;P2;durP2;ratioP2
71975;SDS011;60680;52.182;5.398;2022-12-07T00:01:31;6.38;;;2.65;;
71975;SDS011;60680;52.182;5.398;2022-12-07T00:04:04;5.40;;;2.15;;
71975;SDS011;60680;52.182;5.398;2022-12-07T00:06:32;5.72;;;2.15;;
71975;SDS011;60680;52.182;5.398;2022-12-07T00:09:00;3.95;;;1.90;;
71975;SDS011;60680;52.182;5.398;2022-12-07T00:11:27;7.90;;;2.37;;
71975;SDS011;60680;52.182;5.398;2022-12-07T00:13:54;6.45;;;2.50;;
71975;SDS011;60680;52.182;5.398;2022-12-07T00:16:23;4.82;;;2.17;;
71975;SDS011;60680;52.182;5.398;2022-12-07T00:18:52;5.07;;;2.00;;
71975;SDS011;60680;52.182;5.398;2022-12-07T00:21:19;4.97;;;2.17;;
71975;SDS011;60680;52.182;5.398;2022-12-07T00:23:48;5.23;;;2.40;;
71975;SDS011;60680;52.182;5.398;2022-12-07T00:26:17;6.03;;;1.95;;
71975;SDS011;60680;52.182;5.398;2022-12-07T00:28:46;4.80;;;2.10;;
71975;SDS011;60680;52.182;5.398;2022-12-07T00:31:18;6.10;;;2.33;;
71975;SDS011;60680;52.182;5.398;2022-12-07T00:33:46;5.90;;;2.10;;
71975;SDS011;60680;52.182;5.398;2022-12-07T00:36:15;4.37;;;1.77;;
71975;SDS011;60680;52.182;5.398;2022-12-07T00:38:51;4.50;;;1.88;;
71975;SDS011;60680;52.182;5.398;2022-12-07T00:41:19;4.72;;;2.50;;
71975;SDS011;60680;52.182;5.398;2022-12-07T00:43:47;7.68;;;2.08;;
71975;SDS011;60680;52.182;5.398;2022-12-07T00:46:15;5.68;;;1.80;;
71975;SDS011;60680;52.182;5.398;2022-12-07T00:48:43;5.67;;;1.90;;
71975;SDS011;60680;52.182;5.398;2022-12-07T00:51:10;9.65;;;2.60;;
71975;SDS011;60680;52.182;5.398;2022-12-07T00:53:38;7.15;;;2.30;;
71975;SDS011;60680;52.182;5.398;2022-12-07T00:56:07;5.90;;;2.00;;
71975;SDS011;60680;52.182;5.398;2022-12-07T00:58:37;4.70;;;2.00;;
71975;SDS011;60680;52.182;5.398;2022-12-07T01:01:04;5.83;;;1.90;;
71975;SDS011;60680;52.182;5.398;2022-12-07T01:03:32;4.18;;;1.70;;
71975;SDS011;60680;52.182;5.398;2022-12-07T01:05:59;3.83;;;1.67;;
71975;SDS011;60680;52.182;5.398;2022-12-07T01:08:26;9.77;;;2.72;;
71975;SDS011;60680;52.182;5.398;2022-12-07T01:10:57;8.50;;;2.63;;
71975;SDS011;60680;52.182;5.398;2022-12-07T01:13:33;5.40;;;1.50;;
71975;SDS011;60680;52.182;5.398;2022-12-07T01:16:01;8.40;;;1.77;;
71975;SDS011;60680;52.182;5.398;2022-12-07T01:18:29;4.00;;;1.27;;
71975;SDS011;60680;52.182;5.398;2022-12-07T01:20:58;5.13;;;1.40;;
71975;SDS011;60680;52.182;5.398;2022-12-07T01:23:25;5.28;;;1.45;;
71975;SDS011;60680;52.182;5.398;2022-12-07T01:25:58;7.03;;;1.30;;
71975;SDS011;60680;52.182;5.398;2022-12-07T01:28:26;5.35;;;1.27;;
71975;SDS011;60680;52.182;5.398;2022-12-07T01:33:23;4.68;;;1.10;;
71975;SDS011;60680;52.182;5.398;2022-12-07T01:35:50;6.45;;;1.17;;
71975;SDS011;60680;52.182;5.398;2022-12-07T01:38:16;3.30;;;0.93;;
71975;SDS011;60680;52.182;5.398;2022-12-07T01:40:42;5.95;;;1.10;;
71975;SDS011;60680;52.182;5.398;2022-12-07T01:43:18;15.60;;;3.08;;
71975;SDS011;60680;52.182;5.398;2022-12-07T01:45:45;9.45;;;1.92;;
71975;SDS011;60680;52.182;5.398;2022-12-07T01:48:12;3.92;;;1.00;;
71975;SDS011;60680;52.182;5.398;2022-12-07T01:50:43;3.60;;;0.80;;
71975;SDS011;60680;52.182;5.398;2022-12-07T01:53:13;3.75;;;1.00;;
71975;SDS011;60680;52.182;5.398;2022-12-07T01:55:41;4.68;;;0.95;;
71975;SDS011;60680;52.182;5.398;2022-12-07T01:58:10;5.93;;;0.93;;
71975;SDS011;60680;52.182;5.398;2022-12-07T02:00:38;3.20;;;0.77;;
71975;SDS011;60680;52.182;5.398;2022-12-07T02:03:13;3.00;;;0.90;;
71975;SDS011;60680;52.182;5.398;2022-12-07T02:05:44;3.03;;;0.60;;
71975;SDS011;60680;52.182;5.398;2022-12-07T02:08:12;5.40;;;0.90;;
71975;SDS011;60680;52.182;5.398;2022-12-07T02:10:40;2.30;;;0.65;;
71975;SDS011;60680;52.182;5.398;2022-12-07T02:13:11;4.88;;;0.80;;
71975;SDS011;60680;52.182;5.398;2022-12-07T02:23:40;2.45;;;0.40;;
71975;SDS011;60680;52.182;5.398;2022-12-07T02:26:19;7.25;;;0.50;;
71975;SDS011;60680;52.182;5.398;2022-12-07T02:31:18;1.83;;;0.40;;
71975;SDS011;60680;52.182;5.398;2022-12-07T02:33:53;3.03;;;0.63;;
71975;SDS011;60680;52.182;5.398;2022-12-07T02:36:27;3.35;;;0.38;;
71975;SDS011;60680;52.182;5.398;2022-12-07T02:39:07;3.72;;;0.45;;
71975;SDS011;60680;52.182;5.398;2022-12-07T02:41:44;6.10;;;0.40;;
71975;SDS011;60680;52.182;5.398;2022-12-07T02:44:17;4.00;;;0.50;;
71975;SDS011;60680;52.182;5.398;2022-12-07T02:46:52;4.90;;;0.70;;
71975;SDS011;60680;52.182;5.398;2022-12-07T02:49:22;4.20;;;0.73;;
71975;SDS011;60680;52.182;5.398;2022-12-07T02:51:51;3.42;;;0.30;;
71975;SDS011;60680;52.182;5.398;2022-12-07T02:54:19;2.43;;;0.67;;
71975;SDS011;60680;52.182;5.398;2022-12-07T02:56:51;4.40;;;0.50;;
71975;SDS011;60680;52.182;5.398;2022-12-07T03:08:02;4.53;;;0.57;;
71975;SDS011;60680;52.182;5.398;2022-12-07T03:16:15;4.13;;;0.60;;
71975;SDS011;60680;52.182;5.398;2022-12-07T03:21:37;3.27;;;0.33;;
71975;SDS011;60680;52.182;5.398;2022-12-07T03:24:08;3.60;;;0.40;;
71975;SDS011;60680;52.182;5.398;2022-12-07T03:26:38;4.32;;;0.40;;
71975;SDS011;60680;52.182;5.398;2022-12-07T03:29:21;2.60;;;0.40;;
71975;SDS011;60680;52.182;5.398;2022-12-07T03:31:54;5.53;;;0.35;;
71975;SDS011;60680;52.182;5.398;2022-12-07T03:34:31;5.50;;;0.70;;
71975;SDS011;60680;52.182;5.398;2022-12-07T03:37:05;4.03;;;0.73;;
71975;SDS011;60680;52.182;5.398;2022-12-07T03:39:41;4.93;;;0.70;;
71975;SDS011;60680;52.182;5.398;2022-12-07T03:42:16;1.52;;;0.30;;
71975;SDS011;60680;52.182;5.398;2022-12-07T03:44:42;2.55;;;0.60;;
71975;SDS011;60680;52.182;5.398;2022-12-07T03:52:55;4.65;;;0.60;;
71975;SDS011;60680;52.182;5.398;2022-12-07T03:55:27;3.53;;;0.55;;
71975;SDS011;60680;52.182;5.398;2022-12-07T03:58:02;2.38;;;0.63;;
71975;SDS011;60680;52.182;5.398;2022-12-07T04:00:32;3.67;;;0.60;;
71975;SDS011;60680;52.182;5.398;2022-12-07T04:03:00;3.50;;;0.47;;
71975;SDS011;60680;52.182;5.398;2022-12-07T04:05:26;3.10;;;0.40;;
71975;SDS011;60680;52.182;5.398;2022-12-07T04:07:54;5.72;;;0.52;;
71975;SDS011;60680;52.182;5.398;2022-12-07T04:10:21;3.90;;;0.40;;
71975;SDS011;60680;52.182;5.398;2022-12-07T04:12:47;3.37;;;0.60;;
71975;SDS011;60680;52.182;5.398;2022-12-07T04:15:14;4.25;;;0.52;;
71975;SDS011;60680;52.182;5.398;2022-12-07T04:17:41;2.20;;;0.50;;
71975;SDS011;60680;52.182;5.398;2022-12-07T04:20:07;4.50;;;0.50;;
71975;SDS011;60680;52.182;5.398;2022-12-07T04:22:34;3.35;;;0.40;;
71975;SDS011;60680;52.182;5.398;2022-12-07T04:25:01;5.23;;;0.60;;
71975;SDS011;60680;52.182;5.398;2022-12-07T04:27:28;2.55;;;0.32;;
71975;SDS011;60680;52.182;5.398;2022-12-07T04:29:55;3.92;;;0.40;;
71975;SDS011;60680;52.182;5.398;2022-12-07T04:32:22;3.53;;;0.50;;
71975;SDS011;60680;52.182;5.398;2022-12-07T04:34:49;5.25;;;0.57;;
71975;SDS011;60680;52.182;5.398;2022-12-07T04:37:21;2.70;;;0.40;;
71975;SDS011;60680;52.182;5.398;2022-12-07T04:39:48;2.45;;;0.40;;
71975;SDS011;60680;52.182;5.398;2022-12-07T04:42:15;4.68;;;0.55;;
71975;SDS011;60680;52.182;5.398;2022-12-07T04:44:42;5.20;;;0.40;;
71975;SDS011;60680;52.182;5.398;2022-12-07T04:47:08;1.52;;;0.47;;
71975;SDS011;60680;52.182;5.398;2022-12-07T04:49:35;1.27;;;0.40;;
71975;SDS011;60680;52.182;5.398;2022-12-07T04:52:02;1.58;;;0.22;;
71975;SDS011;60680;52.182;5.398;2022-12-07T04:54:29;2.78;;;0.50;;
71975;SDS011;60680;52.182;5.398;2022-12-07T04:56:56;1.67;;;0.30;;
71975;SDS011;60680;52.182;5.398;2022-12-07T04:59:23;1.80;;;0.25;;
71975;SDS011;60680;52.182;5.398;2022-12-07T05:01:49;1.30;;;0.30;;
71975;SDS011;60680;52.182;5.398;2022-12-07T05:04:16;4.32;;;0.20;;
71975;SDS011;60680;52.182;5.398;2022-12-07T05:06:44;1.65;;;0.20;;
71975;SDS011;60680;52.182;5.398;2022-12-07T05:09:11;1.70;;;0.30;;
71975;SDS011;60680;52.182;5.398;2022-12-07T05:11:38;1.27;;;0.38;;
71975;SDS011;60680;52.182;5.398;2022-12-07T05:14:06;3.07;;;0.37;;
71975;SDS011;60680;52.182;5.398;2022-12-07T05:16:41;1.90;;;0.30;;
71975;SDS011;60680;52.182;5.398;2022-12-07T05:19:09;1.80;;;0.15;;
71975;SDS011;60680;52.182;5.398;2022-12-07T05:21:36;3.15;;;0.40;;
71975;SDS011;60680;52.182;5.398;2022-12-07T05:24:04;3.53;;;0.30;;
71975;SDS011;60680;52.182;5.398;2022-12-07T05:26:31;0.97;;;0.20;;
71975;SDS011;60680;52.182;5.398;2022-12-07T05:28:58;2.25;;;0.28;;
71975;SDS011;60680;52.182;5.398;2022-12-07T05:31:25;2.95;;;0.10;;
71975;SDS011;60680;52.182;5.398;2022-12-07T05:33:53;6.88;;;0.25;;
71975;SDS011;60680;52.182;5.398;2022-12-07T05:36:19;4.32;;;0.30;;
71975;SDS011;60680;52.182;5.398;2022-12-07T05:38:46;3.97;;;0.20;;
71975;SDS011;60680;52.182;5.398;2022-12-07T05:41:14;2.05;;;0.10;;
71975;SDS011;60680;52.182;5.398;2022-12-07T05:44:02;2.50;;;0.40;;
71975;SDS011;60680;52.182;5.398;2022-12-07T05:46:30;0.88;;;0.10;;
71975;SDS011;60680;52.182;5.398;2022-12-07T05:48:57;3.38;;;0.10;;
71975;SDS011;60680;52.182;5.398;2022-12-07T05:51:24;2.67;;;0.10;;
71975;SDS011;60680;52.182;5.398;2022-12-07T05:53:51;3.65;;;0.20;;
71975;SDS011;60680;52.182;5.398;2022-12-07T05:56:17;0.75;;;0.13;;
71975;SDS011;60680;52.182;5.398;2022-12-07T05:58:43;1.98;;;0.10;;
71975;SDS011;60680;52.182;5.398;2022-12-07T06:01:29;4.95;;;0.30;;
71975;SDS011;60680;52.182;5.398;2022-12-07T06:03:55;4.37;;;0.27;;
71975;SDS011;60680;52.182;5.398;2022-12-07T06:06:22;1.30;;;0.10;;
71975;SDS011;60680;52.182;5.398;2022-12-07T06:08:49;1.00;;;0.22;;
71975;SDS011;60680;52.182;5.398;2022-12-07T06:11:15;6.00;;;0.30;;
71975;SDS011;60680;52.182;5.398;2022-12-07T06:14:01;2.45;;;0.20;;
71975;SDS011;60680;52.182;5.398;2022-12-07T06:16:27;4.20;;;0.20;;
71975;SDS011;60680;52.182;5.398;2022-12-07T06:18:54;3.40;;;0.57;;
71975;SDS011;60680;52.182;5.398;2022-12-07T06:21:21;2.78;;;0.32;;
71975;SDS011;60680;52.182;5.398;2022-12-07T06:23:48;4.07;;;0.30;;
71975;SDS011;60680;52.182;5.398;2022-12-07T06:26:14;10.00;;;0.40;;
71975;SDS011;60680;52.182;5.398;2022-12-07T06:28:41;2.40;;;0.30;;
71975;SDS011;60680;52.182;5.398;2022-12-07T06:31:08;3.85;;;0.32;;
71975;SDS011;60680;52.182;5.398;2022-12-07T06:33:39;0.95;;;0.15;;
71975;SDS011;60680;52.182;5.398;2022-12-07T06:36:06;2.95;;;0.22;;
71975;SDS011;60680;52.182;5.398;2022-12-07T06:38:33;1.88;;;0.25;;
71975;SDS011;60680;52.182;5.398;2022-12-07T06:40:59;1.13;;;0.20;;
71975;SDS011;60680;52.182;5.398;2022-12-07T06:43:26;2.28;;;0.20;;
71975;SDS011;60680;52.182;5.398;2022-12-07T06:45:53;4.72;;;0.40;;
71975;SDS011;60680;52.182;5.398;2022-12-07T06:48:20;6.85;;;0.30;;
71975;SDS011;60680;52.182;5.398;2022-12-07T06:50:47;1.33;;;0.20;;
71975;SDS011;60680;52.182;5.398;2022-12-07T06:53:20;3.77;;;0.40;;
71975;SDS011;60680;52.182;5.398;2022-12-07T06:55:47;3.10;;;0.32;;
71975;SDS011;60680;52.182;5.398;2022-12-07T06:58:13;2.42;;;0.40;;
71975;SDS011;60680;52.182;5.398;2022-12-07T07:00:40;5.50;;;0.40;;
71975;SDS011;60680;52.182;5.398;2022-12-07T07:03:06;4.07;;;0.50;;
71975;SDS011;60680;52.182;5.398;2022-12-07T07:05:33;2.60;;;0.40;;
71975;SDS011;60680;52.182;5.398;2022-12-07T07:07:59;5.95;;;0.60;;
71975;SDS011;60680;52.182;5.398;2022-12-07T07:10:46;2.85;;;0.50;;
71975;SDS011;60680;52.182;5.398;2022-12-07T07:13:13;8.80;;;0.40;;
71975;SDS011;60680;52.182;5.398;2022-12-07T07:15:39;3.38;;;0.50;;
71975;SDS011;60680;52.182;5.398;2022-12-07T07:18:06;3.30;;;0.40;;
71975;SDS011;60680;52.182;5.398;2022-12-07T07:20:33;1.55;;;0.30;;
71975;SDS011;60680;52.182;5.398;2022-12-07T07:23:00;2.28;;;0.38;;
71975;SDS011;60680;52.182;5.398;2022-12-07T07:25:27;3.58;;;0.55;;
71975;SDS011;60680;52.182;5.398;2022-12-07T07:27:53;4.22;;;0.60;;
71975;SDS011;60680;52.182;5.398;2022-12-07T07:30:20;3.50;;;0.57;;
71975;SDS011;60680;52.182;5.398;2022-12-07T07:32:47;3.78;;;0.70;;
71975;SDS011;60680;52.182;5.398;2022-12-07T07:35:13;9.00;;;0.88;;
71975;SDS011;60680;52.182;5.398;2022-12-07T07:37:40;2.03;;;0.32;;
71975;SDS011;60680;52.182;5.398;2022-12-07T07:40:07;2.00;;;0.40;;
71975;SDS011;60680;52.182;5.398;2022-12-07T07:42:35;5.27;;;0.50;;
71975;SDS011;60680;52.182;5.398;2022-12-07T07:45:02;6.72;;;0.60;;
71975;SDS011;60680;52.182;5.398;2022-12-07T07:47:29;5.47;;;0.70;;
71975;SDS011;60680;52.182;5.398;2022-12-07T07:49:55;3.75;;;0.30;;
71975;SDS011;60680;52.182;5.398;2022-12-07T07:52:23;2.42;;;0.70;;
71975;SDS011;60680;52.182;5.398;2022-12-07T07:54:50;5.50;;;0.70;;
71975;SDS011;60680;52.182;5.398;2022-12-07T07:57:17;3.10;;;0.80;;
71975;SDS011;60680;52.182;5.398;2022-12-07T07:59:44;3.63;;;0.50;;
71975;SDS011;60680;52.182;5.398;2022-12-07T08:02:14;2.47;;;0.55;;
71975;SDS011;60680;52.182;5.398;2022-12-07T08:04:42;3.03;;;0.68;;
71975;SDS011;60680;52.182;5.398;2022-12-07T08:07:10;4.93;;;0.77;;
71975;SDS011;60680;52.182;5.398;2022-12-07T08:09:37;5.40;;;0.63;;
71975;SDS011;60680;52.182;5.398;2022-12-07T08:12:04;4.75;;;0.70;;
71975;SDS011;60680;52.182;5.398;2022-12-07T08:14:30;3.60;;;0.70;;
71975;SDS011;60680;52.182;5.398;2022-12-07T08:16:57;4.00;;;0.82;;
71975;SDS011;60680;52.182;5.398;2022-12-07T08:19:24;5.10;;;0.70;;
71975;SDS011;60680;52.182;5.398;2022-12-07T08:21:51;2.92;;;0.70;;
71975;SDS011;60680;52.182;5.398;2022-12-07T08:24:18;2.67;;;0.60;;
71975;SDS011;60680;52.182;5.398;2022-12-07T08:26:44;4.57;;;0.70;;
71975;SDS011;60680;52.182;5.398;2022-12-07T08:29:11;3.22;;;0.43;;
71975;SDS011;60680;52.182;5.398;2022-12-07T08:31:37;1.30;;;0.40;;
71975;SDS011;60680;52.182;5.398;2022-12-07T08:34:04;3.67;;;0.57;;
71975;SDS011;60680;52.182;5.398;2022-12-07T08:36:31;3.47;;;0.65;;
71975;SDS011;60680;52.182;5.398;2022-12-07T08:38:57;2.47;;;0.75;;
71975;SDS011;60680;52.182;5.398;2022-12-07T08:41:44;6.70;;;0.70;;
71975;SDS011;60680;52.182;5.398;2022-12-07T08:44:11;4.67;;;0.80;;
71975;SDS011;60680;52.182;5.398;2022-12-07T08:46:38;4.30;;;0.88;;
71975;SDS011;60680;52.182;5.398;2022-12-07T08:49:21;3.20;;;1.13;;
71975;SDS011;60680;52.182;5.398;2022-12-07T08:51:53;2.90;;;0.80;;
71975;SDS011;60680;52.182;5.398;2022-12-07T08:54:21;4.10;;;0.90;;
71975;SDS011;60680;52.182;5.398;2022-12-07T08:56:48;1.97;;;0.57;;
71975;SDS011;60680;52.182;5.398;2022-12-07T08:59:24;2.22;;;0.60;;
71975;SDS011;60680;52.182;5.398;2022-12-07T09:01:51;1.92;;;0.75;;
71975;SDS011;60680;52.182;5.398;2022-12-07T09:04:18;2.58;;;0.30;;
71975;SDS011;60680;52.182;5.398;2022-12-07T09:06:44;2.65;;;0.30;;
71975;SDS011;60680;52.182;5.398;2022-12-07T09:09:11;2.70;;;0.30;;
71975;SDS011;60680;52.182;5.398;2022-12-07T09:11:40;3.05;;;0.43;;
71975;SDS011;60680;52.182;5.398;2022-12-07T09:14:07;2.08;;;0.43;;
71975;SDS011;60680;52.182;5.398;2022-12-07T09:16:34;4.82;;;0.50;;
71975;SDS011;60680;52.182;5.398;2022-12-07T09:19:01;1.70;;;0.30;;
71975;SDS011;60680;52.182;5.398;2022-12-07T09:21:27;1.63;;;0.30;;
71975;SDS011;60680;52.182;5.398;2022-12-07T09:23:54;5.20;;;0.90;;
71975;SDS011;60680;52.182;5.398;2022-12-07T09:26:21;5.13;;;0.65;;
71975;SDS011;60680;52.182;5.398;2022-12-07T09:28:47;3.15;;;0.38;;
71975;SDS011;60680;52.182;5.398;2022-12-07T09:31:14;4.32;;;0.40;;
71975;SDS011;60680;52.182;5.398;2022-12-07T09:34:09;2.93;;;0.30;;
71975;SDS011;60680;52.182;5.398;2022-12-07T09:36:35;2.25;;;0.30;;
71975;SDS011;60680;52.182;5.398;2022-12-07T09:39:02;1.73;;;0.30;;
71975;SDS011;60680;52.182;5.398;2022-12-07T09:41:30;5.78;;;0.63;;
71975;SDS011;60680;52.182;5.398;2022-12-07T09:44:02;5.00;;;0.30;;
71975;SDS011;60680;52.182;5.398;2022-12-07T09:46:34;2.73;;;0.40;;
71975;SDS011;60680;52.182;5.398;2022-12-07T09:49:14;3.15;;;0.75;;
71975;SDS011;60680;52.182;5.398;2022-12-07T09:51:45;3.10;;;0.40;;
71975;SDS011;60680;52.182;5.398;2022-12-07T09:54:13;3.00;;;0.60;;
71975;SDS011;60680;52.182;5.398;2022-12-07T09:56:41;3.50;;;0.50;;
71975;SDS011;60680;52.182;5.398;2022-12-07T09:59:09;3.47;;;0.30;;
71975;SDS011;60680;52.182;5.398;2022-12-07T10:01:42;2.20;;;0.40;;
71975;SDS011;60680;52.182;5.398;2022-12-07T10:06:37;1.42;;;0.28;;
71975;SDS011;60680;52.182;5.398;2022-12-07T10:09:08;2.30;;;0.30;;
71975;SDS011;60680;52.182;5.398;2022-12-07T10:11:57;2.50;;;0.30;;
71975;SDS011;60680;52.182;5.398;2022-12-07T10:14:37;2.95;;;0.30;;
71975;SDS011;60680;52.182;5.398;2022-12-07T10:17:36;1.35;;;0.30;;
71975;SDS011;60680;52.182;5.398;2022-12-07T10:20:14;3.53;;;0.50;;
71975;SDS011;60680;52.182;5.398;2022-12-07T10:22:54;3.05;;;0.32;;
71975;SDS011;60680;52.182;5.398;2022-12-07T10:25:33;1.37;;;0.30;;
71975;SDS011;60680;52.182;5.398;2022-12-07T10:30:52;2.67;;;0.40;;
71975;SDS011;60680;52.182;5.398;2022-12-07T10:33:44;4.97;;;0.40;;
71975;SDS011;60680;52.182;5.398;2022-12-07T10:36:22;3.17;;;0.55;;
71975;SDS011;60680;52.182;5.398;2022-12-07T10:38:58;2.50;;;0.40;;
71975;SDS011;60680;52.182;5.398;2022-12-07T10:41:27;7.00;;;0.60;;
71975;SDS011;60680;52.182;5.398;2022-12-07T10:43:54;5.20;;;0.57;;
71975;SDS011;60680;52.182;5.398;2022-12-07T10:46:29;2.28;;;0.40;;
71975;SDS011;60680;52.182;5.398;2022-12-07T10:52:15;2.27;;;0.33;;
71975;SDS011;60680;52.182;5.398;2022-12-07T10:55:00;2.13;;;0.40;;
71975;SDS011;60680;52.182;5.398;2022-12-07T11:00:24;3.20;;;0.52;;
71975;SDS011;60680;52.182;5.398;2022-12-07T11:11:22;2.05;;;0.30;;
71975;SDS011;60680;52.182;5.398;2022-12-07T11:28:07;2.00;;;0.30;;
71975;SDS011;60680;52.182;5.398;2022-12-07T11:35:50;4.65;;;0.40;;
71975;SDS011;60680;52.182;5.398;2022-12-07T11:41:08;5.35;;;0.88;;
71975;SDS011;60680;52.182;5.398;2022-12-07T11:43:56;4.03;;;0.40;;
71975;SDS011;60680;52.182;5.398;2022-12-07T11:51:48;5.10;;;0.40;;
71975;SDS011;60680;52.182;5.398;2022-12-07T11:54:20;5.68;;;0.50;;
71975;SDS011;60680;52.182;5.398;2022-12-07T11:57:07;3.45;;;0.50;;
71975;SDS011;60680;52.182;5.398;2022-12-07T11:59:52;3.90;;;0.50;;
71975;SDS011;60680;52.182;5.398;2022-12-07T12:02:32;5.63;;;0.50;;
71975;SDS011;60680;52.182;5.398;2022-12-07T12:07:40;2.90;;;0.40;;
71975;SDS011;60680;52.182;5.398;2022-12-07T12:10:37;3.55;;;0.50;;
71975;SDS011;60680;52.182;5.398;2022-12-07T12:13:52;2.60;;;0.30;;
71975;SDS011;60680;52.182;5.398;2022-12-07T12:19:25;2.17;;;0.40;;
71975;SDS011;60680;52.182;5.398;2022-12-07T12:21:58;4.20;;;0.35;;
71975;SDS011;60680;52.182;5.398;2022-12-07T12:24:32;1.52;;;0.28;;
71975;SDS011;60680;52.182;5.398;2022-12-07T12:27:08;2.80;;;0.43;;
71975;SDS011;60680;52.182;5.398;2022-12-07T12:29:41;2.47;;;0.13;;
71975;SDS011;60680;52.182;5.398;2022-12-07T12:32:20;2.65;;;0.30;;
71975;SDS011;60680;52.182;5.398;2022-12-07T12:40:12;2.77;;;0.10;;
71975;SDS011;60680;52.182;5.398;2022-12-07T12:42:50;3.33;;;0.30;;
71975;SDS011;60680;52.182;5.398;2022-12-07T12:45:23;2.17;;;0.30;;
71975;SDS011;60680;52.182;5.398;2022-12-07T12:52:56;6.57;;;0.30;;
71975;SDS011;60680;52.182;5.398;2022-12-07T13:00:47;3.05;;;1.17;;
71975;SDS011;60680;52.182;5.398;2022-12-07T13:03:35;3.05;;;0.28;;
71975;SDS011;60680;52.182;5.398;2022-12-07T13:06:17;1.90;;;0.10;;
71975;SDS011;60680;52.182;5.398;2022-12-07T13:08:46;0.73;;;0.20;;
71975;SDS011;60680;52.182;5.398;2022-12-07T13:11:24;0.95;;;0.20;;
71975;SDS011;60680;52.182;5.398;2022-12-07T13:17:01;0.52;;;0.10;;
71975;SDS011;60680;52.182;5.398;2022-12-07T13:20:02;1.00;;;0.30;;
71975;SDS011;60680;52.182;5.398;2022-12-07T13:22:34;3.13;;;0.80;;
71975;SDS011;60680;52.182;5.398;2022-12-07T13:27:40;1.30;;;0.10;;
71975;SDS011;60680;52.182;5.398;2022-12-07T13:30:13;1.20;;;0.30;;
71975;SDS011;60680;52.182;5.398;2022-12-07T13:32:42;0.30;;;0.00;;
71975;SDS011;60680;52.182;5.398;2022-12-07T13:35:29;0.40;;;0.10;;
71975;SDS011;60680;52.182;5.398;2022-12-07T13:37:57;0.65;;;0.10;;
71975;SDS011;60680;52.182;5.398;2022-12-07T13:40:24;3.22;;;0.20;;
71975;SDS011;60680;52.182;5.398;2022-12-07T13:43:24;1.15;;;0.32;;
71975;SDS011;60680;52.182;5.398;2022-12-07T13:45:43;3.40;;;1.20;;
71975;SDS011;60680;52.182;5.398;2022-12-07T13:48:26;14.32;;;5.63;;
71975;SDS011;60680;52.182;5.398;2022-12-07T13:50:55;13.80;;;5.40;;
71975;SDS011;60680;52.182;5.398;2022-12-07T13:53:23;5.20;;;2.50;;
71975;SDS011;60680;52.182;5.398;2022-12-07T13:55:49;12.73;;;5.93;;
71975;SDS011;60680;52.182;5.398;2022-12-07T13:58:20;10.20;;;4.07;;
71975;SDS011;60680;52.182;5.398;2022-12-07T14:00:48;9.02;;;4.75;;
71975;SDS011;60680;52.182;5.398;2022-12-07T14:05:42;4.07;;;1.00;;
71975;SDS011;60680;52.182;5.398;2022-12-07T14:10:40;3.73;;;1.07;;
71975;SDS011;60680;52.182;5.398;2022-12-07T14:15:56;3.50;;;1.05;;
71975;SDS011;60680;52.182;5.398;2022-12-07T14:18:45;3.53;;;0.80;;
71975;SDS011;60680;52.182;5.398;2022-12-07T14:23:41;2.03;;;0.30;;
71975;SDS011;60680;52.182;5.398;2022-12-07T14:26:12;8.05;;;0.47;;
71975;SDS011;60680;52.182;5.398;2022-12-07T14:28:41;2.53;;;0.30;;
71975;SDS011;60680;52.182;5.398;2022-12-07T14:31:10;3.45;;;0.30;;
71975;SDS011;60680;52.182;5.398;2022-12-07T14:33:49;1.38;;;0.30;;
71975;SDS011;60680;52.182;5.398;2022-12-07T14:36:16;2.53;;;0.43;;
71975;SDS011;60680;52.182;5.398;2022-12-07T14:38:42;1.60;;;0.30;;
71975;SDS011;60680;52.182;5.398;2022-12-07T14:41:16;3.40;;;0.60;;
71975;SDS011;60680;52.182;5.398;2022-12-07T14:44:13;0.88;;;0.40;;
71975;SDS011;60680;52.182;5.398;2022-12-07T14:46:59;2.05;;;0.43;;
71975;SDS011;60680;52.182;5.398;2022-12-07T14:49:46;1.67;;;0.33;;
71975;SDS011;60680;52.182;5.398;2022-12-07T14:52:25;4.22;;;0.50;;
71975;SDS011;60680;52.182;5.398;2022-12-07T14:55:21;1.90;;;0.28;;
71975;SDS011;60680;52.182;5.398;2022-12-07T14:57:50;2.17;;;0.25;;
71975;SDS011;60680;52.182;5.398;2022-12-07T15:00:17;5.93;;;0.50;;
71975;SDS011;60680;52.182;5.398;2022-12-07T15:02:46;2.70;;;0.70;;
71975;SDS011;60680;52.182;5.398;2022-12-07T15:05:13;1.15;;;0.35;;
71975;SDS011;60680;52.182;5.398;2022-12-07T15:07:42;2.00;;;0.30;;
71975;SDS011;60680;52.182;5.398;2022-12-07T15:10:14;3.33;;;0.50;;
71975;SDS011;60680;52.182;5.398;2022-12-07T15:12:58;3.38;;;0.20;;
71975;SDS011;60680;52.182;5.398;2022-12-07T15:15:47;1.90;;;0.20;;
71975;SDS011;60680;52.182;5.398;2022-12-07T15:18:14;1.77;;;0.40;;
71975;SDS011;60680;52.182;5.398;2022-12-07T15:20:41;1.33;;;0.43;;
71975;SDS011;60680;52.182;5.398;2022-12-07T15:23:08;0.70;;;0.10;;
71975;SDS011;60680;52.182;5.398;2022-12-07T15:25:35;1.60;;;0.20;;
71975;SDS011;60680;52.182;5.398;2022-12-07T15:28:02;0.93;;;0.20;;
71975;SDS011;60680;52.182;5.398;2022-12-07T15:30:29;1.30;;;0.25;;
71975;SDS011;60680;52.182;5.398;2022-12-07T15:32:55;2.88;;;0.20;;
71975;SDS011;60680;52.182;5.398;2022-12-07T15:35:22;2.90;;;0.30;;
71975;SDS011;60680;52.182;5.398;2022-12-07T15:37:48;1.58;;;0.30;;
71975;SDS011;60680;52.182;5.398;2022-12-07T15:40:14;2.70;;;0.40;;
71975;SDS011;60680;52.182;5.398;2022-12-07T15:42:41;3.70;;;0.32;;
71975;SDS011;60680;52.182;5.398;2022-12-07T15:45:08;1.63;;;0.30;;
71975;SDS011;60680;52.182;5.398;2022-12-07T15:50:23;3.03;;;0.40;;
71975;SDS011;60680;52.182;5.398;2022-12-07T15:52:52;3.10;;;0.40;;
71975;SDS011;60680;52.182;5.398;2022-12-07T15:55:19;1.35;;;0.43;;
71975;SDS011;60680;52.182;5.398;2022-12-07T15:57:45;2.35;;;0.43;;
71975;SDS011;60680;52.182;5.398;2022-12-07T16:00:12;2.55;;;0.32;;
71975;SDS011;60680;52.182;5.398;2022-12-07T16:02:39;5.18;;;1.02;;
71975;SDS011;60680;52.182;5.398;2022-12-07T16:05:06;3.77;;;0.97;;
71975;SDS011;60680;52.182;5.398;2022-12-07T16:07:32;2.85;;;0.60;;
71975;SDS011;60680;52.182;5.398;2022-12-07T16:09:59;2.22;;;0.52;;
71975;SDS011;60680;52.182;5.398;2022-12-07T16:12:25;1.33;;;0.55;;
71975;SDS011;60680;52.182;5.398;2022-12-07T16:14:52;2.78;;;0.70;;
71975;SDS011;60680;52.182;5.398;2022-12-07T16:17:18;3.23;;;0.70;;
71975;SDS011;60680;52.182;5.398;2022-12-07T16:19:45;1.30;;;0.55;;
71975;SDS011;60680;52.182;5.398;2022-12-07T16:22:11;2.67;;;0.50;;
71975;SDS011;60680;52.182;5.398;2022-12-07T16:24:38;1.80;;;0.60;;
71975;SDS011;60680;52.182;5.398;2022-12-07T16:27:04;5.13;;;0.95;;
71975;SDS011;60680;52.182;5.398;2022-12-07T16:29:30;3.70;;;0.87;;
71975;SDS011;60680;52.182;5.398;2022-12-07T16:31:57;3.00;;;0.90;;
71975;SDS011;60680;52.182;5.398;2022-12-07T16:34:23;5.47;;;1.13;;
71975;SDS011;60680;52.182;5.398;2022-12-07T16:36:50;3.08;;;1.15;;
71975;SDS011;60680;52.182;5.398;2022-12-07T16:39:32;3.38;;;0.88;;
71975;SDS011;60680;52.182;5.398;2022-12-07T16:42:00;5.57;;;1.80;;
71975;SDS011;60680;52.182;5.398;2022-12-07T16:44:26;3.55;;;1.50;;
71975;SDS011;60680;52.182;5.398;2022-12-07T16:46:54;2.97;;;1.08;;
71975;SDS011;60680;52.182;5.398;2022-12-07T16:49:20;5.40;;;1.38;;
71975;SDS011;60680;52.182;5.398;2022-12-07T16:51:49;4.82;;;1.10;;
71975;SDS011;60680;52.182;5.398;2022-12-07T16:54:36;4.67;;;0.80;;
71975;SDS011;60680;52.182;5.398;2022-12-07T16:57:02;6.25;;;1.60;;
71975;SDS011;60680;52.182;5.398;2022-12-07T16:59:29;9.02;;;1.45;;
71975;SDS011;60680;52.182;5.398;2022-12-07T17:01:55;5.28;;;1.10;;
71975;SDS011;60680;52.182;5.398;2022-12-07T17:04:22;5.07;;;0.65;;
71975;SDS011;60680;52.182;5.398;2022-12-07T17:06:49;3.80;;;1.07;;
71975;SDS011;60680;52.182;5.398;2022-12-07T17:09:15;5.20;;;1.25;;
71975;SDS011;60680;52.182;5.398;2022-12-07T17:11:46;3.97;;;0.85;;